Time;durP1;ratioP1;P1;durP2;ratioP2;P2;SDS_P1;SDS_P2;PMS_P1;PMS_P2;Temp;Humidity;BMP_temperature;BMP_pressure;BME280_temperature;BME280_humidity;BME280_pressure;Samples;Min_cycle;Max_cycle;Signal;HPM_P1;HPM_P2
2021/12/15 00:02:23;;;;;;;6.43;2.05;;;20.20;63.80;;;;;;4495355;31;20208;-75
2021/12/15 00:04:52;;;;;;;6.45;2.00;;;20.20;63.80;;;;;;4494096;31;20153;-74
2021/12/15 00:07:20;;;;;;;4.97;1.52;;;20.20;63.80;;;;;;4494647;31;20139;-75
2021/12/15 00:09:47;;;;;;;7.38;2.03;;;20.20;63.80;;;;;;4494535;31;20132;-74
2021/12/15 00:12:14;;;;;;;5.38;1.48;;;20.10;63.80;;;;;;4481113;31;20184;-73
2021/12/15 00:14:41;;;;;;;7.00;1.88;;;20.10;63.80;;;;;;4469180;31;20144;-74
2021/12/15 00:17:08;;;;;;;5.25;2.13;;;20.20;63.80;;;;;;4493488;31;20604;-73
2021/12/15 00:19:34;;;;;;;5.20;1.88;;;20.10;63.80;;;;;;4495193;31;20140;-74
2021/12/15 00:22:01;;;;;;;6.30;2.10;;;20.10;63.80;;;;;;4481409;31;20136;-74
2021/12/15 00:24:28;;;;;;;6.82;1.90;;;20.10;63.70;;;;;;4504970;31;20116;-74
2021/12/15 00:26:55;;;;;;;5.10;2.00;;;20.10;63.80;;;;;;4493922;31;20147;-74
2021/12/15 00:29:21;;;;;;;4.93;1.70;;;20.10;63.80;;;;;;4494669;31;20278;-74
2021/12/15 00:31:48;;;;;;;5.15;1.73;;;20.10;63.70;;;;;;4494831;31;20139;-73
2021/12/15 00:34:15;;;;;;;6.35;2.05;;;20.10;63.80;;;;;;4480005;31;20685;-73
2021/12/15 00:36:45;;;;;;;7.10;2.33;;;20.10;63.80;;;;;;4496113;31;20129;-74
2021/12/15 00:39:16;;;;;;;8.70;2.10;;;20.10;63.80;;;;;;4493015;31;20128;-73
2021/12/15 00:41:42;;;;;;;4.63;1.92;;;20.00;63.80;;;;;;4494240;31;20154;-74
2021/12/15 00:44:10;;;;;;;6.15;1.70;;;20.00;63.90;;;;;;4493902;31;20128;-73
2021/12/15 00:46:37;;;;;;;5.45;1.83;;;20.00;63.80;;;;;;4493643;31;20141;-74
2021/12/15 00:49:04;;;;;;;5.22;1.67;;;20.00;63.80;;;;;;4495827;31;20146;-74
2021/12/15 00:51:31;;;;;;;4.32;1.52;;;20.00;63.80;;;;;;4493048;31;20136;-73
2021/12/15 00:53:57;;;;;;;4.30;1.50;;;20.00;63.80;;;;;;4495828;31;20133;-74
2021/12/15 00:56:23;;;;;;;3.95;1.70;;;20.00;63.80;;;;;;4466929;31;20136;-73
2021/12/15 00:58:49;;;;;;;5.35;1.90;;;20.00;63.80;;;;;;4493871;31;20128;-74
2021/12/15 01:01:15;;;;;;;3.90;1.48;;;20.00;63.90;;;;;;4493632;31;20128;-73
2021/12/15 01:03:43;;;;;;;4.35;1.90;;;19.90;63.80;;;;;;4493403;31;20146;-74
2021/12/15 01:06:11;;;;;;;4.18;2.05;;;19.90;63.80;;;;;;4494429;31;20266;-73
2021/12/15 01:08:43;;;;;;;4.53;1.70;;;19.90;63.80;;;;;;4493997;31;20529;-73
2021/12/15 01:11:25;;;;;;;4.18;1.55;;;19.90;63.80;;;;;;4495637;31;20558;-73
2021/12/15 01:22:17;;;;;;;5.50;1.73;;;19.90;64.00;;;;;;4493888;31;20513;-73
2021/12/15 01:24:43;;;;;;;3.85;1.52;;;19.90;63.90;;;;;;4494589;31;20121;-73
2021/12/15 01:27:10;;;;;;;5.75;1.77;;;19.90;63.90;;;;;;4493906;31;20113;-73
2021/12/15 01:29:36;;;;;;;4.57;1.38;;;19.90;64.00;;;;;;4479589;31;20262;-74
2021/12/15 01:32:03;;;;;;;5.63;1.80;;;19.80;64.00;;;;;;4499292;31;20142;-73
2021/12/15 01:34:29;;;;;;;6.55;1.80;;;19.90;64.00;;;;;;4508526;31;20491;-73
2021/12/15 01:36:57;;;;;;;3.97;1.48;;;19.80;63.90;;;;;;4497351;31;20193;-73
2021/12/15 01:39:24;;;;;;;4.95;1.67;;;19.80;63.90;;;;;;4509624;31;20121;-73
2021/12/15 01:41:54;;;;;;;6.80;1.75;;;19.80;63.90;;;;;;4509044;31;20140;-73
2021/12/15 01:46:58;;;;;;;6.80;1.67;;;19.80;63.80;;;;;;4508468;31;20189;-73
2021/12/15 01:49:40;;;;;;;4.43;1.88;;;19.80;63.90;;;;;;4509749;31;20139;-73
2021/12/15 01:52:17;;;;;;;4.95;1.88;;;19.80;64.00;;;;;;4508696;31;20156;-74
2021/12/15 01:54:51;;;;;;;4.18;1.48;;;19.80;63.90;;;;;;4509239;31;20143;-73
2021/12/15 01:57:18;;;;;;;3.65;1.50;;;19.80;63.90;;;;;;4509640;31;20124;-73
2021/12/15 01:59:47;;;;;;;3.38;1.52;;;19.80;64.00;;;;;;4495516;31;20132;-73
2021/12/15 02:02:15;;;;;;;8.55;1.60;;;19.70;63.90;;;;;;4509819;31;20136;-73
2021/12/15 02:04:42;;;;;;;3.30;1.40;;;19.70;63.90;;;;;;4495189;31;20685;-73
2021/12/15 02:07:13;;;;;;;4.53;1.67;;;19.70;63.90;;;;;;4509732;31;20241;-73
2021/12/15 02:12:09;;;;;;;3.45;1.50;;;19.70;63.90;;;;;;4509246;31;20151;-74
2021/12/15 02:14:36;;;;;;;4.20;1.50;;;19.70;63.90;;;;;;4509468;31;20175;-73
2021/12/15 02:17:03;;;;;;;3.20;1.42;;;19.70;63.90;;;;;;4508224;31;20124;-73
2021/12/15 02:19:30;;;;;;;4.32;1.50;;;19.70;64.00;;;;;;4496442;31;20147;-73
2021/12/15 02:21:58;;;;;;;6.00;1.77;;;19.70;64.00;;;;;;4508207;31;20136;-74
2021/12/15 02:24:24;;;;;;;4.10;1.45;;;19.70;63.90;;;;;;4509063;31;20309;-73
2021/12/15 02:26:57;;;;;;;6.15;1.80;;;19.70;63.90;;;;;;4508707;31;20121;-73
2021/12/15 02:29:23;;;;;;;6.50;1.93;;;19.70;63.90;;;;;;4508478;31;20258;-73
2021/12/15 02:31:58;;;;;;;4.03;1.45;;;19.70;63.90;;;;;;4510147;31;20214;-73
2021/12/15 02:39:39;;;;;;;4.68;1.58;;;19.60;63.90;;;;;;4509515;31;20182;-73
2021/12/15 02:42:05;;;;;;;3.97;1.60;;;19.60;64.00;;;;;;4508330;31;20117;-73
2021/12/15 02:44:31;;;;;;;4.07;1.85;;;19.60;63.90;;;;;;4509226;31;20136;-73
2021/12/15 02:46:57;;;;;;;4.32;1.60;;;19.60;64.00;;;;;;4512032;31;20655;-73
2021/12/15 02:49:29;;;;;;;4.38;1.40;;;19.60;63.90;;;;;;4513612;31;20313;-73
2021/12/15 02:51:58;;;;;;;2.63;1.38;;;19.60;63.90;;;;;;4511008;31;20140;-73
2021/12/15 02:54:26;;;;;;;2.10;1.30;;;19.60;63.90;;;;;;4498925;31;20154;-73
2021/12/15 02:56:53;;;;;;;2.20;1.20;;;19.60;63.90;;;;;;4498958;31;20132;-73
2021/12/15 02:59:32;;;;;;;3.20;1.30;;;19.60;63.90;;;;;;4511620;31;20132;-73
2021/12/15 03:04:45;;;;;;;3.75;1.33;;;19.60;63.90;;;;;;4512092;31;20181;-72
2021/12/15 03:07:35;;;;;;;3.75;1.30;;;19.50;63.90;;;;;;4513481;31;20250;-73
2021/12/15 03:15:33;;;;;;;4.57;1.52;;;19.60;63.90;;;;;;4512940;31;20232;-73
2021/12/15 03:18:18;;;;;;;2.92;1.45;;;19.50;63.90;;;;;;4498551;31;20128;-73
2021/12/15 03:20:48;;;;;;;3.63;1.42;;;19.50;63.80;;;;;;4510844;31;20148;-73
2021/12/15 03:23:24;;;;;;;3.65;1.45;;;19.50;63.90;;;;;;4511977;31;20132;-73
2021/12/15 03:25:51;;;;;;;3.53;1.30;;;19.50;63.90;;;;;;4510069;31;20789;-73
2021/12/15 03:36:51;;;;;;;3.28;1.58;;;19.50;63.90;;;;;;4499493;31;20710;-74
2021/12/15 03:39:11;;;;;;;3.88;1.40;;;19.50;63.90;;;;;;4511088;31;20127;-73
2021/12/15 03:41:38;;;;;;;3.15;1.50;;;19.50;63.90;;;;;;4511863;31;20116;-73
2021/12/15 03:44:07;;;;;;;4.30;1.63;;;19.50;63.90;;;;;;4512121;31;20121;-73
2021/12/15 03:46:33;;;;;;;3.75;1.48;;;19.50;63.90;;;;;;4496723;31;20140;-73
2021/12/15 03:49:00;;;;;;;3.05;1.55;;;19.50;63.90;;;;;;4498560;31;20229;-73
2021/12/15 03:51:26;;;;;;;3.75;1.40;;;19.50;64.00;;;;;;4496341;31;20151;-73
2021/12/15 03:53:52;;;;;;;2.05;1.38;;;19.50;63.90;;;;;;4498481;31;20249;-73
2021/12/15 03:56:18;;;;;;;3.55;1.50;;;19.40;63.90;;;;;;4509912;31;20120;-73
2021/12/15 03:58:45;;;;;;;4.30;1.52;;;19.40;63.90;;;;;;4497584;31;20217;-73
2021/12/15 04:01:21;;;;;;;3.80;1.23;;;19.40;63.90;;;;;;4510771;31;20132;-73
2021/12/15 04:03:57;;;;;;;2.47;1.58;;;19.50;63.90;;;;;;4497718;31;20128;-73
2021/12/15 04:06:28;;;;;;;3.28;1.52;;;19.40;63.90;;;;;;4498320;31;20112;-73
2021/12/15 04:08:56;;;;;;;3.50;1.55;;;19.40;63.90;;;;;;4509661;31;20714;-73
2021/12/15 04:11:24;;;;;;;4.15;1.70;;;19.40;63.90;;;;;;4497820;31;20156;-73
2021/12/15 04:13:52;;;;;;;3.17;1.25;;;19.40;63.90;;;;;;4510847;31;20144;-73
2021/12/15 04:19:00;;;;;;;2.58;1.40;;;19.40;63.90;;;;;;4511997;31;20131;-73
2021/12/15 04:21:27;;;;;;;3.38;1.75;;;19.40;63.90;;;;;;4509209;31;20124;-73
2021/12/15 04:23:54;;;;;;;3.25;1.40;;;19.40;63.90;;;;;;4497905;31;20147;-73
2021/12/15 04:26:21;;;;;;;4.15;1.70;;;19.40;63.90;;;;;;4509732;31;20214;-73
2021/12/15 04:28:49;;;;;;;2.88;1.80;;;19.40;63.90;;;;;;4510201;31;20177;-73
2021/12/15 04:31:19;;;;;;;3.42;1.55;;;19.30;63.80;;;;;;4497160;31;20136;-73
2021/12/15 04:33:58;;;;;;;3.80;1.45;;;19.30;63.80;;;;;;4509397;31;20189;-73
2021/12/15 04:36:27;;;;;;;4.15;1.55;;;19.30;63.80;;;;;;4510812;31;20120;-73
2021/12/15 04:38:56;;;;;;;3.28;1.60;;;19.30;63.80;;;;;;4509955;31;20213;-73
2021/12/15 04:41:22;;;;;;;3.88;1.80;;;19.30;63.80;;;;;;4511363;31;20148;-73
2021/12/15 04:43:56;;;;;;;2.55;1.80;;;19.30;63.80;;;;;;4510584;31;20571;-73
2021/12/15 04:46:33;;;;;;;2.90;1.60;;;19.30;63.80;;;;;;4509703;31;20188;-73
2021/12/15 04:49:01;;;;;;;2.95;1.60;;;19.30;63.80;;;;;;4510421;31;20127;-73
2021/12/15 04:51:27;;;;;;;3.03;1.45;;;19.30;63.80;;;;;;4509113;31;20132;-73
2021/12/15 04:53:53;;;;;;;3.88;1.70;;;19.30;63.80;;;;;;4497064;31;20143;-73
2021/12/15 04:56:20;;;;;;;3.45;1.85;;;19.30;63.80;;;;;;4496070;31;20136;-73
2021/12/15 04:58:48;;;;;;;4.53;1.70;;;19.30;63.80;;;;;;4510808;31;20143;-73
2021/12/15 05:01:15;;;;;;;3.35;1.63;;;19.30;63.80;;;;;;4509915;31;20117;-73
2021/12/15 05:03:43;;;;;;;4.72;2.03;;;19.30;63.80;;;;;;4496062;31;20139;-72
2021/12/15 05:06:09;;;;;;;3.35;1.90;;;19.30;63.80;;;;;;4497189;31;20116;-73
2021/12/15 05:08:36;;;;;;;2.78;1.67;;;19.30;63.80;;;;;;4508442;31;20186;-73
2021/12/15 05:11:04;;;;;;;3.80;1.98;;;19.20;63.80;;;;;;4497098;31;20308;-73
2021/12/15 05:13:31;;;;;;;3.35;1.63;;;19.20;63.70;;;;;;4508873;31;20132;-73
2021/12/15 05:15:58;;;;;;;5.40;1.75;;;19.30;64.70;;;;;;4509629;31;20189;-73
2021/12/15 05:18:25;;;;;;;3.13;1.70;;;19.30;63.80;;;;;;4509540;31;20120;-73
2021/12/15 05:20:53;;;;;;;4.93;1.80;;;19.20;63.80;;;;;;4508602;31;20120;-73
2021/12/15 05:23:20;;;;;;;3.40;1.70;;;19.30;63.80;;;;;;4497063;31;20132;-73
2021/12/15 05:25:48;;;;;;;2.55;1.80;;;19.20;63.80;;;;;;4508190;31;20144;-73
2021/12/15 05:28:14;;;;;;;4.05;1.90;;;19.20;63.80;;;;;;4509953;31;20120;-73
2021/12/15 05:30:41;;;;;;;3.67;1.80;;;19.20;63.80;;;;;;4508856;31;20567;-73
2021/12/15 05:33:07;;;;;;;4.90;2.00;;;19.20;63.70;;;;;;4509494;31;20144;-73
2021/12/15 05:35:36;;;;;;;4.07;1.90;;;19.20;63.70;;;;;;4496253;31;20108;-73
2021/12/15 05:38:03;;;;;;;4.30;1.80;;;19.20;63.80;;;;;;4495800;31;20253;-73
2021/12/15 05:40:30;;;;;;;3.92;2.03;;;19.20;63.70;;;;;;4509925;31;20127;-72
2021/12/15 05:42:57;;;;;;;2.83;1.40;;;19.20;63.80;;;;;;4481847;31;20136;-73
2021/12/15 05:45:27;;;;;;;4.05;1.73;;;19.20;63.70;;;;;;4496828;31;20254;-73
2021/12/15 05:47:54;;;;;;;4.57;2.33;;;19.20;63.70;;;;;;4508419;31;20136;-73
2021/12/15 05:50:20;;;;;;;3.50;1.77;;;19.10;63.70;;;;;;4509402;31;20124;-73
2021/12/15 05:52:46;;;;;;;4.57;1.90;;;19.20;63.80;;;;;;4509185;31;20151;-73
2021/12/15 05:55:14;;;;;;;5.72;1.95;;;19.20;63.80;;;;;;4508309;31;20112;-73
2021/12/15 05:57:40;;;;;;;3.85;1.75;;;19.20;63.80;;;;;;4509887;31;20615;-73
2021/12/15 06:00:14;;;;;;;3.78;1.88;;;19.20;63.80;;;;;;4495138;31;20146;-73
2021/12/15 06:02:40;;;;;;;3.22;1.80;;;19.10;63.70;;;;;;4509806;31;20234;-74
2021/12/15 06:05:14;;;;;;;4.55;1.90;;;19.10;63.70;;;;;;4496479;31;20142;-74
2021/12/15 06:07:41;;;;;;;3.60;1.77;;;19.10;63.70;;;;;;4496019;31;20175;-74
2021/12/15 06:10:10;;;;;;;3.38;1.63;;;19.10;63.70;;;;;;4500023;31;20144;-74
2021/12/15 06:12:37;;;;;;;4.72;1.83;;;19.10;63.70;;;;;;4493253;31;20608;-74
2021/12/15 06:15:06;;;;;;;3.40;1.65;;;19.10;63.70;;;;;;4493715;31;20142;-73
2021/12/15 06:17:32;;;;;;;3.45;1.98;;;19.10;63.80;;;;;;4492208;32;20136;-73
2021/12/15 06:19:59;;;;;;;5.00;1.60;;;19.10;63.70;;;;;;4480899;31;20113;-74
2021/12/15 06:22:27;;;;;;;2.75;1.98;;;19.10;63.70;;;;;;4495828;31;20136;-74
2021/12/15 06:24:55;;;;;;;4.50;2.20;;;19.10;63.70;;;;;;4497421;31;20190;-72
2021/12/15 06:27:23;;;;;;;3.72;2.00;;;19.10;63.70;;;;;;4496211;31;20176;-73
2021/12/15 06:29:52;;;;;;;2.90;1.83;;;19.10;63.70;;;;;;4482085;31;20203;-73
2021/12/15 06:32:19;;;;;;;3.63;1.88;;;19.10;63.70;;;;;;4496319;31;20457;-73
2021/12/15 06:34:45;;;;;;;2.75;1.67;;;19.10;63.70;;;;;;4497099;31;20125;-73
2021/12/15 06:37:11;;;;;;;5.10;2.17;;;19.10;63.70;;;;;;4495895;31;20148;-74
2021/12/15 06:39:38;;;;;;;5.35;2.17;;;19.10;63.70;;;;;;4482671;31;20121;-73
2021/12/15 06:42:05;;;;;;;2.63;1.70;;;19.10;63.70;;;;;;4482026;31;20285;-73
2021/12/15 06:44:31;;;;;;;3.45;1.83;;;19.00;63.60;;;;;;4499485;31;20620;-74
2021/12/15 07:00:49;;;;;;;2.58;1.52;;;19.00;63.70;;;;;;4496063;31;20144;-74
2021/12/15 07:03:24;;;;;;;2.53;1.95;;;19.00;63.70;;;;;;4495774;31;20148;-74
2021/12/15 07:05:52;;;;;;;3.20;1.65;;;19.00;63.80;;;;;;4495985;31;20138;-73
2021/12/15 07:08:18;;;;;;;2.30;1.50;;;19.00;63.70;;;;;;4498787;31;20277;-73
2021/12/15 07:10:50;;;;;;;4.70;1.80;;;19.00;63.70;;;;;;4508976;31;20148;-73
2021/12/15 07:13:17;;;;;;;3.13;1.83;;;19.00;63.70;;;;;;4493742;31;20187;-73
2021/12/15 07:15:46;;;;;;;3.53;1.90;;;19.00;63.70;;;;;;4496977;31;20156;-73
2021/12/15 07:18:14;;;;;;;2.55;1.77;;;19.00;63.80;;;;;;4494921;31;20125;-73
2021/12/15 07:20:47;;;;;;;4.32;1.80;;;19.00;63.80;;;;;;4482178;31;20198;-73
2021/12/15 07:23:19;;;;;;;3.13;1.63;;;19.00;63.80;;;;;;4496089;31;20117;-73
2021/12/15 07:25:48;;;;;;;3.47;1.70;;;18.90;63.70;;;;;;4495063;31;20128;-73
2021/12/15 07:28:17;;;;;;;2.85;1.75;;;18.90;63.70;;;;;;4496287;31;20148;-73
2021/12/15 07:30:44;;;;;;;4.43;2.10;;;18.90;63.70;;;;;;4494516;31;20120;-73
2021/12/15 07:33:11;;;;;;;3.40;1.75;;;18.90;63.70;;;;;;4495147;31;20136;-74
2021/12/15 07:35:38;;;;;;;2.90;1.90;;;18.90;63.70;;;;;;4497307;31;20132;-74
2021/12/15 07:38:06;;;;;;;4.28;2.10;;;18.90;63.70;;;;;;4495034;31;20132;-73
2021/12/15 07:40:33;;;;;;;4.00;2.03;;;18.90;63.70;;;;;;4493056;31;20160;-74
2021/12/15 07:43:09;;;;;;;3.00;1.73;;;18.90;63.70;;;;;;4484233;31;20254;-73
2021/12/15 07:45:52;;;;;;;3.88;1.90;;;18.90;63.80;;;;;;4512435;31;20139;-73
2021/12/15 07:48:20;;;;;;;3.42;1.90;;;18.90;63.70;;;;;;4496978;31;20135;-73
2021/12/15 07:50:50;;;;;;;3.88;2.08;;;18.90;63.80;;;;;;4494337;31;20140;-73
2021/12/15 07:53:18;;;;;;;3.22;1.90;;;18.90;63.80;;;;;;4496483;31;20124;-73
2021/12/15 07:55:46;;;;;;;3.42;1.70;;;18.90;63.80;;;;;;4480912;31;20171;-72
2021/12/15 07:58:13;;;;;;;2.47;1.50;;;18.90;63.70;;;;;;4497297;31;20139;-73
2021/12/15 08:00:42;;;;;;;3.83;2.00;;;18.90;63.80;;;;;;4493937;31;20155;-73
2021/12/15 08:03:09;;;;;;;4.22;1.90;;;18.90;63.70;;;;;;4494391;31;20214;-73
2021/12/15 08:05:36;;;;;;;3.90;2.15;;;18.80;63.60;;;;;;4494976;31;20120;-72
2021/12/15 08:08:04;;;;;;;3.13;1.60;;;18.90;63.70;;;;;;4495110;31;20267;-73
2021/12/15 08:10:30;;;;;;;3.60;1.90;;;18.90;63.80;;;;;;4482113;31;20143;-73
2021/12/15 08:12:56;;;;;;;3.83;1.83;;;18.80;63.70;;;;;;4493981;31;20472;-73
2021/12/15 08:15:23;;;;;;;3.60;1.85;;;18.90;63.70;;;;;;4495002;31;20198;-73
2021/12/15 08:17:51;;;;;;;3.17;1.95;;;18.80;63.70;;;;;;4493705;31;20274;-73
2021/12/15 08:20:20;;;;;;;4.18;1.70;;;18.80;63.70;;;;;;4494107;31;20139;-72
2021/12/15 08:22:46;;;;;;;3.45;2.03;;;18.80;63.70;;;;;;4495714;31;20131;-70
2021/12/15 08:25:15;;;;;;;3.13;2.10;;;18.80;63.70;;;;;;4493394;31;20274;-69
2021/12/15 08:27:42;;;;;;;7.18;2.83;;;18.80;63.70;;;;;;4495102;31;20140;-71
2021/12/15 08:30:18;;;;;;;5.60;3.78;;;18.80;63.60;;;;;;4480507;31;20568;-71
2021/12/15 08:32:49;;;;;;;8.20;3.60;;;18.80;63.50;;;;;;4494951;31;20136;-73
2021/12/15 08:35:17;;;;;;;6.88;3.30;;;18.80;63.60;;;;;;4494103;31;20117;-73
2021/12/15 08:37:43;;;;;;;8.10;3.17;;;18.80;63.80;;;;;;4493788;31;20179;-73
2021/12/15 08:40:09;;;;;;;11.05;3.75;;;18.80;63.90;;;;;;4494608;31;20155;-72
2021/12/15 08:42:35;;;;;;;6.30;3.33;;;18.80;64.00;;;;;;4492289;31;20633;-71
2021/12/15 08:45:02;;;;;;;5.97;3.20;;;18.80;64.00;;;;;;4482015;31;20172;-71
2021/12/15 08:47:29;;;;;;;5.57;3.13;;;18.70;64.00;;;;;;4492989;31;20119;-71
2021/12/15 08:49:55;;;;;;;7.63;3.38;;;18.80;64.10;;;;;;4481432;31;20144;-72
2021/12/15 08:52:21;;;;;;;7.93;3.13;;;18.80;64.10;;;;;;4493173;31;20116;-67
2021/12/15 08:54:47;;;;;;;5.72;3.03;;;18.80;64.10;;;;;;4493814;31;20141;-69
2021/12/15 08:57:14;;;;;;;6.95;2.85;;;18.80;63.90;;;;;;4494137;31;20124;-69
2021/12/15 08:59:39;;;;;;;9.10;3.40;;;18.90;64.00;;;;;;4492878;31;20137;-70
2021/12/15 09:02:06;;;;;;;5.75;2.85;;;18.90;63.80;;;;;;4495589;31;20144;-70
2021/12/15 09:04:32;;;;;;;5.60;2.63;;;19.00;63.80;;;;;;4491663;31;20191;-70
2021/12/15 09:06:58;;;;;;;9.45;3.30;;;19.10;63.60;;;;;;4494343;31;20134;-72
2021/12/15 09:09:25;;;;;;;6.97;2.83;;;19.20;63.30;;;;;;4490124;31;20256;-71
2021/12/15 09:11:53;;;;;;;5.90;2.50;;;19.30;63.20;;;;;;4495566;31;20147;-71
2021/12/15 09:14:20;;;;;;;8.80;2.47;;;19.30;63.00;;;;;;4508760;31;20147;-67
2021/12/15 09:16:51;;;;;;;5.80;2.38;;;19.50;62.90;;;;;;4493674;31;20148;-68
2021/12/15 09:19:17;;;;;;;5.88;2.50;;;19.50;62.80;;;;;;4496182;31;20198;-72
2021/12/15 09:21:44;;;;;;;4.97;2.22;;;19.70;62.60;;;;;;4492307;31;20133;-71
2021/12/15 09:24:13;;;;;;;4.00;1.83;;;19.80;62.50;;;;;;4493775;31;20275;-72
2021/12/15 09:26:40;;;;;;;11.82;2.15;;;19.90;62.20;;;;;;4492430;31;20198;-73
2021/12/15 09:29:07;;;;;;;3.55;1.70;;;20.00;62.00;;;;;;4479947;31;20140;-69
2021/12/15 09:31:33;;;;;;;5.35;1.80;;;20.10;61.80;;;;;;4480531;31;20120;-70
2021/12/15 09:34:00;;;;;;;6.13;1.55;;;20.30;61.60;;;;;;4492380;31;20202;-74
2021/12/15 09:36:27;;;;;;;4.07;1.40;;;20.40;61.40;;;;;;4508010;31;20135;-72
2021/12/15 09:39:05;;;;;;;3.65;1.67;;;20.50;61.10;;;;;;4494641;31;20597;-71
2021/12/15 09:41:36;;;;;;;7.47;1.98;;;20.60;60.90;;;;;;4509978;31;20159;-73
2021/12/15 09:44:08;;;;;;;3.75;1.50;;;20.80;60.60;;;;;;4509551;31;20155;-72
2021/12/15 09:46:51;;;;;;;4.20;1.58;;;20.90;60.30;;;;;;4509434;31;20139;-76
2021/12/15 10:01:53;;;;;;;4.38;1.50;;;21.00;60.20;;;;;;4496911;31;20133;-70
2021/12/15 10:03:51;;;;;;;7.13;2.72;;;20.90;60.10;;;;;;4496986;31;20218;-71
2021/12/15 10:19:34;;;;;;;7.38;2.10;;;20.50;60.70;;;;;;4499745;31;20148;-74
2021/12/15 10:22:08;;;;;;;5.95;2.03;;;20.40;60.70;;;;;;4496436;31;20655;-74
2021/12/15 10:24:54;;;;;;;6.35;2.00;;;20.40;60.90;;;;;;4496825;31;20302;-73
2021/12/15 10:27:46;;;;;;;5.72;2.25;;;20.30;61.00;;;;;;4497181;31;20148;-72
2021/12/15 10:30:22;;;;;;;3.75;2.00;;;20.30;61.10;;;;;;4507712;31;20136;-72
2021/12/15 10:32:53;;;;;;;3.63;1.85;;;20.30;61.20;;;;;;4505533;31;20609;-71
2021/12/15 10:35:25;;;;;;;6.78;2.05;;;20.30;61.30;;;;;;4495694;31;20254;-75
2021/12/15 10:38:30;;;;;;;5.20;2.00;;;20.30;61.30;;;;;;4496091;31;20150;-73
2021/12/15 10:41:01;;;;;;;;;;;20.20;61.30;;;;;;4479199;31;20159;-74
2021/12/15 10:43:43;;;;;;;5.47;1.75;;;20.20;61.40;;;;;;4498120;31;20037;-74
2021/12/15 10:46:19;;;;;;;6.03;2.08;;;20.20;61.50;;;;;;4497052;31;20186;-74
2021/12/15 10:48:57;;;;;;;6.25;1.90;;;20.20;61.50;;;;;;4496335;31;20140;-73
2021/12/15 10:51:53;;;;;;;5.03;1.80;;;20.20;61.50;;;;;;4495885;31;20154;-74
2021/12/15 10:54:34;;;;;;;6.00;1.70;;;20.20;61.40;;;;;;4497052;31;20186;-72
2021/12/15 10:57:05;;;;;;;8.02;1.80;;;20.20;61.50;;;;;;4509916;31;20159;-74
2021/12/15 10:59:36;;;;;;;5.60;1.60;;;20.20;61.60;;;;;;4499171;31;20201;-73
2021/12/15 11:02:12;;;;;;;6.83;1.60;;;20.20;62.50;;;;;;4507811;31;20148;-74
2021/12/15 11:04:45;;;;;;;6.80;1.63;;;20.20;61.60;;;;;;4500361;31;20166;-73
2021/12/15 11:07:37;;;;;;;5.00;1.83;;;20.20;61.50;;;;;;4495774;31;20175;-73
2021/12/15 11:10:10;;;;;;;3.17;1.63;;;20.30;61.60;;;;;;4503748;31;20858;-76
2021/12/15 11:12:37;;;;;;;4.60;1.60;;;20.30;61.40;;;;;;4494954;31;20297;-75
2021/12/15 11:15:16;;;;;;;7.78;1.70;;;20.40;61.30;;;;;;4497238;31;20152;-77
2021/12/15 11:17:54;;;;;;;7.82;1.70;;;20.40;61.20;;;;;;4495144;31;20180;-75
2021/12/15 11:20:25;;;;;;;5.88;1.60;;;20.50;61.10;;;;;;4500050;31;20148;-79
2021/12/15 11:23:07;;;;;;;4.07;1.58;;;20.50;61.00;;;;;;4498801;31;20306;-74
2021/12/15 11:25:41;;;;;;;3.40;1.42;;;20.50;60.90;;;;;;4505093;31;20136;-72
2021/12/15 11:28:26;;;;;;;4.53;1.52;;;20.60;60.80;;;;;;4508519;31;20135;-70
2021/12/15 11:31:13;;;;;;;3.20;1.50;;;20.60;60.80;;;;;;4509808;31;20144;-70
2021/12/15 11:33:48;;;;;;;4.93;1.25;;;20.60;60.80;;;;;;4494013;31;20144;-75
2021/12/15 11:36:19;;;;;;;4.00;1.50;;;20.60;60.70;;;;;;4496090;31;20120;-77
2021/12/15 11:39:03;;;;;;;2.20;1.08;;;20.60;60.80;;;;;;4493890;31;20213;-74
2021/12/15 11:41:36;;;;;;;5.80;1.40;;;20.70;60.80;;;;;;4496458;31;20186;-73
2021/12/15 11:44:09;;;;;;;;;;;20.70;60.70;;;;;;4508553;31;20128;-78
2021/12/15 11:46:45;;;;;;;3.05;1.17;;;20.70;60.80;;;;;;4503296;31;20098;-75
2021/12/15 11:49:18;;;;;;;2.88;1.27;;;20.70;60.70;;;;;;4495258;31;20638;-75
2021/12/15 11:52:11;;;;;;;2.15;1.13;;;20.70;60.70;;;;;;4495931;31;20188;-75
2021/12/15 11:54:42;;;;;;;3.78;1.00;;;20.70;60.70;;;;;;4495136;31;20138;-72
2021/12/15 11:57:27;;;;;;;7.30;1.30;;;20.70;60.70;;;;;;4495687;31;20494;-73
2021/12/15 11:59:54;;;;;;;3.67;1.30;;;20.70;60.70;;;;;;4494459;31;20140;-73
2021/12/15 12:02:47;;;;;;;4.00;1.15;;;20.70;60.70;;;;;;4495082;31;20625;-75
2021/12/15 12:05:19;;;;;;;3.20;1.42;;;20.80;60.70;;;;;;4495163;31;20289;-74
2021/12/15 12:07:58;;;;;;;4.20;1.30;;;20.80;60.60;;;;;;4504510;31;20143;-74
2021/12/15 12:10:30;;;;;;;2.22;1.00;;;20.80;60.60;;;;;;4495623;31;20261;-76
2021/12/15 12:13:08;;;;;;;2.67;0.90;;;20.80;60.50;;;;;;4496485;31;20391;-78
2021/12/15 12:15:38;;;;;;;4.20;1.17;;;20.80;60.50;;;;;;4499508;31;20155;-79
2021/12/15 12:18:12;;;;;;;3.33;1.13;;;20.80;60.50;;;;;;4496123;31;20176;-77
2021/12/15 12:20:44;;;;;;;3.97;1.00;;;20.90;60.40;;;;;;4502752;31;20289;-78
2021/12/15 12:23:14;;;;;;;2.90;1.15;;;20.90;60.30;;;;;;4503212;31;20143;-78
2021/12/15 12:25:46;;;;;;;4.10;1.20;;;21.00;60.20;;;;;;4494810;31;20139;-78
2021/12/15 12:28:16;;;;;;;6.15;1.17;;;21.10;60.00;;;;;;4496885;31;20185;-76
2021/12/15 12:30:46;;;;;;;4.80;0.98;;;21.10;59.80;;;;;;4497816;31;20266;-75
2021/12/15 12:33:14;;;;;;;3.30;0.82;;;21.20;59.70;;;;;;4495292;31;20187;-73
2021/12/15 12:35:51;;;;;;;3.75;1.20;;;21.20;59.60;;;;;;4495342;31;20136;-71
2021/12/15 12:38:26;;;;;;;3.20;1.40;;;21.30;59.50;;;;;;4505268;31;20917;-71
2021/12/15 12:40:59;;;;;;;8.00;1.48;;;21.30;59.00;;;;;;4495548;31;20656;-71
2021/12/15 12:43:30;;;;;;;3.30;1.27;;;21.30;58.60;;;;;;4495472;31;20190;-76
2021/12/15 12:46:13;;;;;;;4.22;1.45;;;21.30;58.40;;;;;;4499175;31;20140;-84
2021/12/15 12:59:45;;;;;;;5.95;1.02;;;21.40;58.20;;;;;;4473599;31;20128;-76
2021/12/15 13:02:48;;;;;;;3.57;1.10;;;21.40;58.10;;;;;;4498206;31;20131;-76
2021/12/15 13:05:33;;;;;;;2.92;0.98;;;21.50;58.20;;;;;;4488291;31;20140;-80
2021/12/15 13:08:03;;;;;;;;;;;21.50;58.20;;;;;;4504291;31;20132;-75
2021/12/15 13:10:54;;;;;;;4.88;1.13;;;21.40;58.20;;;;;;4506287;31;20176;-74
2021/12/15 13:13:28;;;;;;;4.35;0.90;;;21.40;58.20;;;;;;4493430;31;20174;-77
2021/12/15 13:16:12;;;;;;;3.53;1.00;;;21.40;58.10;;;;;;4493920;31;20677;-80
2021/12/15 13:19:00;;;;;;;2.72;1.00;;;21.50;58.10;;;;;;4494216;31;20144;-80
2021/12/15 13:21:59;;;;;;;2.97;0.95;;;21.50;58.10;;;;;;4496993;31;20233;-74
2021/12/15 13:30:52;;;;;;;2.92;0.85;;;21.50;57.90;;;;;;4496558;31;20136;-76
2021/12/15 13:33:18;;;;;;;4.28;0.90;;;21.60;57.80;;;;;;4494645;31;20156;-76
2021/12/15 13:35:46;;;;;;;1.60;0.85;;;21.50;57.80;;;;;;4502344;31;20202;-77
2021/12/15 13:38:19;;;;;;;3.40;0.90;;;21.60;57.80;;;;;;4493613;31;20136;-76
2021/12/15 13:40:48;;;;;;;;;;;21.60;57.70;;;;;;4497072;31;20124;-76
2021/12/15 13:43:33;;;;;;;2.58;1.10;;;21.60;57.90;;;;;;4492752;31;20035;-87
2021/12/15 13:45:59;;;;;;;2.40;0.93;;;21.60;57.80;;;;;;4496124;31;20143;-81
2021/12/15 13:48:57;;;;;;;2.42;0.90;;;21.60;57.70;;;;;;4495172;31;20182;-81
2021/12/15 13:51:57;;;;;;;3.78;1.13;;;21.60;57.70;;;;;;4501104;31;20697;-75
2021/12/15 13:54:32;;;;;;;2.20;0.70;;;21.60;57.70;;;;;;4498001;31;20612;-80
2021/12/15 13:57:02;;;;;;;3.22;0.73;;;21.60;57.70;;;;;;4496899;31;20136;-75
2021/12/15 13:59:35;;;;;;;4.88;1.08;;;21.60;57.80;;;;;;4507585;31;20660;-80
2021/12/15 14:02:30;;;;;;;1.80;0.70;;;21.60;57.80;;;;;;4509687;31;20140;-78
2021/12/15 14:05:15;;;;;;;2.40;0.68;;;21.60;58.00;;;;;;4497714;31;20136;-78
2021/12/15 14:07:47;;;;;;;2.58;0.75;;;21.60;58.00;;;;;;4493482;31;20131;-80
2021/12/15 14:10:13;;;;;;;2.40;0.75;;;21.60;57.80;;;;;;4494755;31;20125;-78
2021/12/15 14:12:45;;;;;;;2.13;0.88;;;21.60;57.40;;;;;;4491131;31;20482;-74
2021/12/15 14:15:40;;;;;;;1.63;0.60;;;21.60;56.80;;;;;;4509399;31;20191;-75
2021/12/15 14:18:11;;;;;;;17.73;0.98;;;21.50;56.60;;;;;;4503228;31;20159;-82
2021/12/15 14:20:59;;;;;;;1.85;0.65;;;21.50;56.30;;;;;;4492688;32;20132;-81
2021/12/15 14:23:32;;;;;;;2.95;0.77;;;21.50;56.20;;;;;;4503842;31;20136;-74
2021/12/15 14:26:00;;;;;;;4.28;0.63;;;21.50;56.30;;;;;;4501053;31;20317;-83
2021/12/15 14:28:30;;;;;;;3.30;0.65;;;21.50;56.30;;;;;;4491931;31;20171;-81
2021/12/15 14:31:05;;;;;;;5.22;0.65;;;21.50;56.40;;;;;;4494393;31;20163;-83
2021/12/15 14:33:38;;;;;;;3.10;0.63;;;21.50;56.40;;;;;;4492638;31;20625;-76
2021/12/15 14:36:17;;;;;;;2.20;0.45;;;21.50;56.40;;;;;;4493919;31;20270;-78
2021/12/15 14:38:56;;;;;;;1.67;0.50;;;21.60;56.60;;;;;;4492062;31;20164;-81
2021/12/15 14:41:29;;;;;;;2.03;0.40;;;21.60;56.70;;;;;;4493873;31;20136;-82
2021/12/15 14:44:00;;;;;;;2.95;0.70;;;21.60;56.70;;;;;;4503660;31;20144;-82